Time;durP1;ratioP1;P1;durP2;ratioP2;P2;SDS_P1;SDS_P2;PMS_P1;PMS_P2;Temp;Humidity;BMP_temperature;BMP_pressure;BME280_temperature;BME280_humidity;BME280_pressure;Samples;Min_cycle;Max_cycle;Signal;HPM_P1;HPM_P2
2022/10/08 00:01:17;;;;;;;26.60;14.90;;;;;;;13.99;100.00;99204.19;5121459;28;20047;-95
2022/10/08 00:03:45;;;;;;;36.85;17.13;;;;;;;13.93;100.00;99196.38;5120816;28;20106;-95
2022/10/08 00:06:14;;;;;;;29.13;14.52;;;;;;;13.92;100.00;99197.28;5121249;28;20496;-95
2022/10/08 00:08:42;;;;;;;30.95;15.35;;;;;;;13.87;100.00;99194.78;5120671;28;20634;-95
2022/10/08 00:11:11;;;;;;;28.95;14.43;;;;;;;13.86;100.00;99195.72;5121076;28;20052;-96
2022/10/08 00:13:39;;;;;;;30.20;15.43;;;;;;;13.89;100.00;99213.44;5120153;28;20047;-95
2022/10/08 00:16:06;;;;;;;31.77;16.30;;;;;;;13.92;100.00;99224.91;5120171;28;20051;-96
2022/10/08 00:18:32;;;;;;;34.28;16.58;;;;;;;13.70;100.00;99195.31;5120122;28;20052;-95
2022/10/08 00:21:04;;;;;;;31.52;17.08;;;;;;;13.77;100.00;99218.28;5120158;28;20047;-95
2022/10/08 00:23:33;;;;;;;38.30;18.65;;;;;;;13.72;100.00;99220.22;5120156;28;20036;-95
2022/10/08 00:26:02;;;;;;;42.25;19.77;;;;;;;13.59;100.00;99207.31;5120639;28;20047;-95
2022/10/08 00:28:28;;;;;;;39.47;18.23;;;;;;;13.52;100.00;99204.81;5120680;28;20044;-95
2022/10/08 00:30:54;;;;;;;35.35;18.33;;;;;;;13.49;100.00;99214.75;5121167;28;20067;-95
2022/10/08 00:33:20;;;;;;;34.80;18.05;;;;;;;13.49;100.00;99223.63;5119916;28;20035;-96
2022/10/08 00:35:47;;;;;;;41.25;17.95;;;;;;;13.47;100.00;99220.13;5121074;28;20043;-94
2022/10/08 00:38:12;;;;;;;36.30;17.27;;;;;;;13.48;100.00;99223.69;5121521;28;20048;-96
2022/10/08 00:40:44;;;;;;;36.95;17.45;;;;;;;13.46;100.00;99220.19;5119937;28;20079;-95
2022/10/08 00:43:15;;;;;;;38.83;20.20;;;;;;;13.31;100.00;99209.03;5120570;28;20112;-96
2022/10/08 00:45:41;;;;;;;41.05;20.15;;;;;;;13.34;100.00;99205.41;5121840;28;20043;-96
2022/10/08 00:48:11;;;;;;;38.03;18.83;;;;;;;13.41;100.00;99220.31;5121319;28;20057;-94
2022/10/08 00:50:38;;;;;;;41.03;18.95;;;;;;;13.40;100.00;99223.91;5121058;28;20082;-95
2022/10/08 00:53:06;;;;;;;38.08;18.83;;;;;;;13.37;100.00;99221.34;5120160;28;20039;-95
2022/10/08 00:55:34;;;;;;;39.10;19.40;;;;;;;13.35;100.00;99220.50;5120397;28;20043;-96
2022/10/08 00:58:11;;;;;;;37.88;18.50;;;;;;;13.47;100.00;99221.94;5120586;28;20040;-96
2022/10/08 01:00:37;;;;;;;38.92;18.60;;;;;;;13.40;100.00;99209.69;5120497;28;20127;-96
2022/10/08 01:03:03;;;;;;;48.30;18.77;;;;;;;13.41;100.00;99206.97;5121216;28;20098;-95
2022/10/08 01:05:42;;;;;;;34.85;17.77;;;;;;;13.32;100.00;99202.78;5120863;28;20048;-95
2022/10/08 01:08:15;;;;;;;35.00;17.02;;;;;;;13.31;100.00;99203.69;5120587;28;20043;-96
2022/10/08 01:10:50;;;;;;;37.55;18.20;;;;;;;13.36;100.00;99206.25;5119851;28;20589;-95
2022/10/08 01:13:29;;;;;;;36.00;16.52;;;;;;;13.38;100.00;99212.41;5119931;28;20051;-95
2022/10/08 01:15:59;;;;;;;;;;;;;;;13.49;100.00;99228.13;5120582;28;20051;-96
2022/10/08 01:18:38;;;;;;;35.08;17.40;;;;;;;13.39;100.00;99208.81;5120106;28;19919;-95
2022/10/08 01:21:11;;;;;;;33.72;16.92;;;;;;;13.32;100.00;99186.75;5120966;28;20048;-95
2022/10/08 01:24:07;;;;;;;34.47;16.92;;;;;;;13.47;100.00;99213.94;5121098;28;20047;-96
2022/10/08 01:26:53;;;;;;;33.40;17.13;;;;;;;13.35;100.00;99193.81;5120715;28;20058;-95
2022/10/08 01:29:26;;;;;;;30.27;16.50;;;;;;;13.35;100.00;99180.44;5125304;28;20044;-96
2022/10/08 01:31:56;;;;;;;31.65;16.88;;;;;;;13.46;100.00;99201.47;5124574;28;20048;-95
2022/10/08 01:34:26;;;;;;;30.63;16.15;;;;;;;13.37;100.00;99183.06;5124897;28;20048;-95
2022/10/08 01:36:56;;;;;;;32.10;15.55;;;;;;;13.34;100.00;99173.38;5124779;28;20050;-95
2022/10/08 01:39:26;;;;;;;31.45;16.05;;;;;;;13.32;100.00;99172.53;5124131;28;20063;-96
2022/10/08 01:41:55;;;;;;;45.83;19.65;;;;;;;13.36;100.00;99171.53;5122434;28;20552;-94
2022/10/08 01:44:27;;;;;;;35.63;18.63;;;;;;;13.37;100.00;99169.72;5124660;28;20589;-96
2022/10/08 01:46:57;;;;;;;37.05;18.15;;;;;;;13.38;100.00;99168.78;5127187;28;20074;-93
2022/10/08 01:49:28;;;;;;;36.35;18.13;;;;;;;13.39;100.00;99163.41;5126946;28;20055;-94
2022/10/08 01:51:59;;;;;;;32.75;17.63;;;;;;;13.40;100.00;99157.13;5126321;28;20434;-95
2022/10/08 01:54:29;;;;;;;35.15;18.08;;;;;;;13.46;100.00;99156.06;5124595;28;20485;-96
2022/10/08 01:56:58;;;;;;;33.53;17.25;;;;;;;13.43;100.00;99157.03;5125054;28;20055;-95
2022/10/08 01:59:31;;;;;;;35.80;18.42;;;;;;;13.46;100.00;99159.59;5124572;28;20039;-95
2022/10/08 02:02:04;;;;;;;39.08;19.13;;;;;;;13.45;100.00;99154.31;5123630;28;20089;-94
2022/10/08 02:04:32;;;;;;;37.05;18.58;;;;;;;13.44;100.00;99145.41;5124050;28;20048;-96
2022/10/08 02:07:00;;;;;;;40.08;18.88;;;;;;;13.46;100.00;99145.38;5124725;28;20528;-96
2022/10/08 02:09:27;;;;;;;29.20;16.20;;;;;;;13.44;100.00;99141.88;5124733;27;20043;-96
2022/10/08 02:11:54;;;;;;;40.20;17.65;;;;;;;13.40;100.00;99137.56;5126117;28;20035;-95
2022/10/08 02:14:24;;;;;;;38.88;18.58;;;;;;;13.43;100.00;99140.16;5127148;28;20101;-96
2022/10/08 02:17:00;;;;;;;31.38;17.10;;;;;;;13.43;100.00;99142.81;5126969;28;20106;-94
2022/10/08 02:19:34;;;;;;;32.45;17.02;;;;;;;13.43;100.00;99146.34;5126031;28;20035;-95
2022/10/08 02:22:03;;;;;;;32.45;16.55;;;;;;;13.37;100.00;99125.19;5126107;28;20102;-95
2022/10/08 02:24:35;;;;;;;33.58;16.45;;;;;;;13.41;100.00;99133.97;5126727;28;20391;-95
2022/10/08 02:27:05;;;;;;;30.88;17.52;;;;;;;13.40;100.00;99132.22;5126852;28;20154;-95
2022/10/08 02:29:35;;;;;;;37.60;17.30;;;;;;;13.47;100.00;99139.13;5127130;28;20039;-95
2022/10/08 02:32:08;;;;;;;31.00;16.88;;;;;;;13.39;100.00;99125.13;5125883;28;20058;-94
2022/10/08 02:34:38;;;;;;;35.88;17.73;;;;;;;13.41;100.00;99144.66;5124743;28;20426;-95
2022/10/08 02:37:09;;;;;;;30.23;16.40;;;;;;;13.38;100.00;99134.97;5124770;28;20090;-96
2022/10/08 02:39:40;;;;;;;31.48;16.63;;;;;;;13.40;100.00;99141.09;5125245;28;20067;-95
2022/10/08 02:42:09;;;;;;;29.75;16.70;;;;;;;13.38;100.00;99128.72;5123977;28;20058;-95
2022/10/08 02:44:40;;;;;;;35.60;16.38;;;;;;;13.48;100.00;99141.72;5124728;28;20054;-96
2022/10/08 02:47:12;;;;;;;36.22;18.95;;;;;;;13.45;100.00;99138.28;5124941;27;20103;-94
2022/10/08 02:49:42;;;;;;;38.45;19.50;;;;;;;13.45;100.00;99132.94;5124500;28;20044;-93
2022/10/08 02:52:09;;;;;;;35.78;17.83;;;;;;;13.34;100.00;99134.16;5125256;28;20044;-95
2022/10/08 02:54:39;;;;;;;36.95;19.10;;;;;;;13.38;100.00;99124.28;5125155;28;20040;-95
2022/10/08 02:57:12;;;;;;;35.33;17.33;;;;;;;13.36;100.00;99123.44;5124694;28;20044;-96
2022/10/08 02:59:38;;;;;;;35.65;16.48;;;;;;;13.34;100.00;99115.47;5123583;28;20055;-95
2022/10/08 03:02:04;;;;;;;35.97;18.35;;;;;;;13.38;100.00;99120.69;5123953;28;20063;-95
2022/10/08 03:04:37;;;;;;;32.40;17.90;;;;;;;13.40;100.00;99129.53;5124858;28;20047;-95
2022/10/08 03:07:04;;;;;;;36.78;19.10;;;;;;;13.27;100.00;99103.22;5123541;28;20039;-94
2022/10/08 03:09:35;;;;;;;38.55;20.23;;;;;;;13.38;100.00;99129.63;5123432;28;20130;-96
2022/10/08 03:12:01;;;;;;;44.08;21.80;;;;;;;13.29;100.00;99112.09;5123629;28;20048;-96
2022/10/08 03:14:30;;;;;;;40.70;21.20;;;;;;;13.23;100.00;99112.25;5123416;28;20552;-95
2022/10/08 03:16:56;;;;;;;39.25;21.50;;;;;;;13.24;100.00;99107.78;5122378;28;20052;-95
2022/10/08 03:19:22;;;;;;;35.30;20.20;;;;;;;13.24;100.00;99119.31;5122721;28;20054;-95
2022/10/08 03:21:53;;;;;;;37.55;18.88;;;;;;;13.22;100.00;99118.50;5122224;28;20043;-94
2022/10/08 03:24:19;;;;;;;38.28;19.63;;;;;;;13.23;100.00;99122.03;5123220;28;20047;-95
2022/10/08 03:26:45;;;;;;;40.28;20.67;;;;;;;13.20;100.00;99119.47;5122994;28;20039;-96
2022/10/08 03:29:11;;;;;;;37.47;20.38;;;;;;;13.14;100.00;99124.09;5124386;27;20043;-95
2022/10/08 03:31:38;;;;;;;41.35;20.08;;;;;;;13.12;100.00;99120.59;5124277;28;20572;-96
2022/10/08 03:34:04;;;;;;;40.55;18.67;;;;;;;13.11;100.00;99124.19;5124232;28;20048;-95
2022/10/08 03:36:30;;;;;;;43.38;20.65;;;;;;;13.10;100.00;99124.25;5123166;28;20433;-95
2022/10/08 03:38:58;;;;;;;38.85;19.48;;;;;;;13.18;100.00;99132.88;5123211;28;20051;-95
2022/10/08 03:41:24;;;;;;;37.63;19.35;;;;;;;13.11;100.00;99123.31;5123318;28;20044;-96
2022/10/08 03:43:50;;;;;;;39.08;20.10;;;;;;;13.23;100.00;99144.31;5123832;28;20039;-95
2022/10/08 03:46:16;;;;;;;36.63;19.27;;;;;;;13.22;100.00;99137.19;5124473;28;20074;-94
2022/10/08 03:48:42;;;;;;;38.45;19.77;;;;;;;13.11;100.00;99117.97;5123135;28;20075;-96
2022/10/08 03:51:12;;;;;;;36.90;19.58;;;;;;;13.15;100.00;99122.31;5122732;28;20043;-94
2022/10/08 03:53:40;;;;;;;42.90;18.70;;;;;;;13.12;100.00;99122.41;5123492;28;20047;-95
2022/10/08 03:56:10;;;;;;;37.80;18.85;;;;;;;13.31;100.00;99147.59;5123888;28;20099;-95
2022/10/08 03:58:36;;;;;;;36.25;17.42;;;;;;;13.15;100.00;99114.28;5124345;28;20051;-95
2022/10/08 04:01:05;;;;;;;30.67;16.88;;;;;;;13.11;100.00;99104.63;5124578;28;20048;-96
2022/10/08 04:03:31;;;;;;;36.53;18.52;;;;;;;13.13;100.00;99110.78;5125457;28;20048;-96
2022/10/08 04:05:58;;;;;;;37.75;18.17;;;;;;;13.14;100.00;99107.19;5124590;28;20058;-95
2022/10/08 04:08:25;;;;;;;39.33;18.27;;;;;;;13.20;100.00;99122.16;5124273;28;20044;-95
2022/10/08 04:10:52;;;;;;;35.95;18.88;;;;;;;13.17;100.00;99114.25;5124196;28;20050;-95
2022/10/08 04:13:20;;;;;;;36.95;18.25;;;;;;;13.20;100.00;99117.66;5124618;28;20051;-94
2022/10/08 04:15:47;;;;;;;34.17;17.58;;;;;;;13.30;100.00;99135.19;5123222;27;20044;-95
2022/10/08 04:18:13;;;;;;;37.33;17.83;;;;;;;13.25;100.00;99117.53;5123708;28;20048;-94
2022/10/08 04:20:39;;;;;;;36.00;17.95;;;;;;;13.20;100.00;99111.47;5122832;28;20043;-96
2022/10/08 04:23:06;;;;;;;35.13;18.75;;;;;;;13.15;100.00;99109.81;5122483;28;20131;-95
2022/10/08 04:25:31;;;;;;;34.05;17.70;;;;;;;13.17;100.00;99106.25;5122462;28;20552;-94
2022/10/08 04:27:57;;;;;;;32.95;19.17;;;;;;;13.25;100.00;99122.84;5123011;28;20079;-95
2022/10/08 04:30:25;;;;;;;36.88;18.67;;;;;;;13.22;100.00;99123.84;5122408;28;20047;-95
2022/10/08 04:32:51;;;;;;;37.10;19.70;;;;;;;13.25;100.00;99120.19;5123250;28;20089;-95
2022/10/08 04:35:17;;;;;;;40.13;19.75;;;;;;;13.28;100.00;99133.47;5123029;28;20051;-94
2022/10/08 04:37:43;;;;;;;35.15;19.55;;;;;;;13.21;100.00;99114.09;5122458;28;20396;-95
2022/10/08 04:40:09;;;;;;;36.58;18.27;;;;;;;13.23;100.00;99124.72;5121942;28;20056;-96
2022/10/08 04:42:35;;;;;;;34.42;18.48;;;;;;;13.20;100.00;99116.81;5124150;28;20039;-95
2022/10/08 04:45:01;;;;;;;39.80;18.77;;;;;;;13.13;100.00;99102.78;5124241;28;20246;-94
2022/10/08 04:47:29;;;;;;;34.10;18.05;;;;;;;13.07;100.00;99102.97;5122513;28;20043;-95
2022/10/08 04:49:55;;;;;;;35.40;17.80;;;;;;;13.09;100.00;99109.13;5122005;28;20043;-95
2022/10/08 04:52:21;;;;;;;39.08;18.67;;;;;;;13.08;100.00;99112.75;5122794;28;20043;-95
2022/10/08 04:54:47;;;;;;;37.38;18.48;;;;;;;13.09;100.00;99109.13;5122978;28;20058;-95
2022/10/08 04:57:13;;;;;;;36.15;17.17;;;;;;;13.09;100.00;99115.34;5122882;28;20036;-95
2022/10/08 04:59:40;;;;;;;36.08;18.40;;;;;;;13.05;100.00;99112.81;5122949;28;20059;-96
2022/10/08 05:02:06;;;;;;;35.40;17.85;;;;;;;13.05;100.00;99113.69;5122549;28;20039;-95
2022/10/08 05:04:33;;;;;;;36.20;18.42;;;;;;;13.04;100.00;99119.09;5124511;28;20055;-95
2022/10/08 05:06:59;;;;;;;39.58;18.55;;;;;;;13.02;100.00;99119.13;5124310;28;20078;-94
2022/10/08 05:09:25;;;;;;;36.40;18.27;;;;;;;13.12;100.00;99133.97;5125133;28;20040;-94
2022/10/08 05:11:51;;;;;;;38.97;19.63;;;;;;;13.13;100.00;99129.47;5126029;28;20036;-95
2022/10/08 05:14:17;;;;;;;36.50;18.00;;;;;;;13.05;100.00;99115.50;5126814;28;20083;-94
2022/10/08 05:16:43;;;;;;;35.53;18.30;;;;;;;13.15;100.00;99130.31;5124164;28;20116;-95
2022/10/08 05:19:09;;;;;;;32.38;16.92;;;;;;;13.00;100.00;99115.66;5122344;28;20489;-96
2022/10/08 05:21:36;;;;;;;32.53;17.35;;;;;;;12.95;100.00;99112.25;5122298;28;20571;-95
2022/10/08 05:24:05;;;;;;;37.55;16.88;;;;;;;13.05;100.00;99136.84;5123051;28;20047;-95
2022/10/08 05:26:33;;;;;;;34.30;18.08;;;;;;;12.99;100.00;99121.03;5122795;28;20043;-94
2022/10/08 05:29:00;;;;;;;38.93;18.97;;;;;;;12.93;100.00;99120.31;5124986;28;20047;-94
2022/10/08 05:31:28;;;;;;;33.58;17.77;;;;;;;12.93;100.00;99125.63;5125176;28;20492;-94
2022/10/08 05:33:54;;;;;;;34.17;17.58;;;;;;;12.95;100.00;99126.47;5124013;28;20526;-95
2022/10/08 05:36:22;;;;;;;33.92;18.30;;;;;;;12.99;100.00;99137.94;5125763;28;20063;-95
2022/10/08 05:38:50;;;;;;;33.47;18.80;;;;;;;12.88;100.00;99124.91;5126724;28;20536;-96
2022/10/08 05:41:18;;;;;;;34.67;18.02;;;;;;;12.90;100.00;99125.75;5126869;28;20044;-95
2022/10/08 05:43:45;;;;;;;34.57;19.13;;;;;;;12.95;100.00;99133.63;5126838;28;20049;-94
2022/10/08 05:46:11;;;;;;;44.03;19.27;;;;;;;13.04;100.00;99143.13;5126122;28;20051;-95
2022/10/08 05:48:38;;;;;;;34.10;17.80;;;;;;;12.99;100.00;99129.94;5126244;28;20100;-96
2022/10/08 05:51:05;;;;;;;35.30;19.23;;;;;;;13.05;100.00;99128.84;5124817;28;20430;-95
2022/10/08 05:53:34;;;;;;;33.75;18.40;;;;;;;13.08;100.00;99136.78;5126177;28;20040;-94
2022/10/08 05:56:03;;;;;;;34.53;18.80;;;;;;;13.11;100.00;99139.34;5127466;28;20043;-95
2022/10/08 05:58:29;;;;;;;35.97;17.75;;;;;;;13.11;100.00;99142.00;5129577;28;20046;-94
2022/10/08 06:00:56;;;;;;;35.67;18.48;;;;;;;13.17;100.00;99140.94;5128780;28;20122;-96
2022/10/08 06:03:22;;;;;;;34.88;19.20;;;;;;;13.20;100.00;99139.03;5127449;28;20086;-95
2022/10/08 06:05:48;;;;;;;36.60;19.50;;;;;;;13.32;100.00;99151.19;5123286;28;20036;-93
2022/10/08 06:08:14;;;;;;;38.40;18.85;;;;;;;13.43;100.00;99161.50;5119411;28;20044;-94
2022/10/08 06:10:47;;;;;;;36.00;19.40;;;;;;;13.53;100.00;99166.50;5120803;28;20039;-95
2022/10/08 06:13:15;;;;;;;41.30;20.25;;;;;;;13.67;100.00;99166.03;5119395;28;20032;-94
2022/10/08 06:15:41;;;;;;;41.05;20.65;;;;;;;13.77;100.00;99171.97;5119582;28;20046;-93
2022/10/08 06:18:06;;;;;;;35.47;18.88;;;;;;;13.86;100.00;99184.16;5119211;28;20036;-93
2022/10/08 06:20:35;;;;;;;37.17;18.20;;;;;;;13.83;100.00;99165.53;5118507;28;20051;-93
2022/10/08 06:23:01;;;;;;;34.03;16.80;;;;;;;13.95;100.00;99171.31;5119392;28;20105;-92
2022/10/08 06:25:27;;;;;;;29.95;16.63;;;;;;;13.98;100.00;99154.31;5120908;27;20485;-93
2022/10/08 06:27:53;;;;;;;31.45;17.00;;;;;;;14.21;100.00;99172.22;5120315;28;20051;-93
2022/10/08 06:30:20;;;;;;;37.00;17.83;;;;;;;14.32;100.00;99177.19;5120437;28;20039;-94
2022/10/08 06:32:46;;;;;;;36.55;17.00;;;;;;;14.49;100.00;99188.16;5120154;28;20035;-93
2022/10/08 06:35:12;;;;;;;27.85;15.02;;;;;;;14.52;100.00;99168.44;5121452;28;20587;-94
2022/10/08 06:37:39;;;;;;;31.98;16.38;;;;;;;14.49;100.00;99174.78;5119374;28;20399;-92
2022/10/08 06:40:05;;;;;;;32.15;16.88;;;;;;;14.38;100.00;99175.16;5114588;28;20387;-93
2022/10/08 06:42:31;;;;;;;31.08;16.73;;;;;;;14.45;100.00;99196.34;5118848;28;20023;-93
2022/10/08 06:44:57;;;;;;;32.97;16.63;;;;;;;14.26;100.00;99183.63;5119149;28;20043;-93
2022/10/08 06:47:24;;;;;;;34.50;18.40;;;;;;;14.17;100.00;99171.44;5118372;28;20496;-94
2022/10/08 06:49:50;;;;;;;32.25;17.15;;;;;;;14.02;100.00;99177.34;5116419;27;20093;-89
2022/10/08 06:52:16;;;;;;;33.92;17.98;;;;;;;14.12;100.00;99189.47;5117899;28;20040;-91
2022/10/08 06:54:42;;;;;;;36.58;19.25;;;;;;;14.01;100.00;99180.94;5118817;28;20461;-91
2022/10/08 06:57:08;;;;;;;33.72;17.60;;;;;;;14.14;100.00;99202.78;5119212;28;20074;-91
2022/10/08 06:59:33;;;;;;;36.25;18.02;;;;;;;14.25;100.00;99207.75;5118151;28;20074;-93
2022/10/08 07:01:59;;;;;;;32.22;17.52;;;;;;;14.28;100.00;99192.47;5118197;28;20084;-92
2022/10/08 07:04:26;;;;;;;35.92;18.17;;;;;;;14.50;100.00;99199.72;5118733;27;20034;-93
2022/10/08 07:06:52;;;;;;;34.03;17.83;;;;;;;14.68;100.00;99204.47;5117209;28;20142;-94
2022/10/08 07:09:18;;;;;;;28.80;15.52;;;;;;;14.86;100.00;99204.69;5117008;28;20066;-91
2022/10/08 07:11:44;;;;;;;29.83;16.60;;;;;;;14.98;100.00;99199.75;5117928;28;20043;-92
2022/10/08 07:14:10;;;;;;;29.15;16.42;;;;;;;15.11;100.00;99202.81;5118079;28;20035;-95
2022/10/08 07:16:36;;;;;;;30.27;16.55;;;;;;;15.20;100.00;99196.22;5118681;28;20035;-94
2022/10/08 07:19:02;;;;;;;29.75;17.25;;;;;;;15.31;100.00;99202.06;5118417;28;20057;-95
2022/10/08 07:21:30;;;;;;;32.13;16.52;;;;;;;15.37;99.77;99191.06;5118179;28;20118;-93
2022/10/08 07:23:58;;;;;;;30.13;16.67;;;;;;;15.54;98.78;99200.25;5119318;28;20063;-94
2022/10/08 07:26:25;;;;;;;29.07;15.77;;;;;;;15.71;97.74;99202.25;5116474;28;20049;-95
2022/10/08 07:28:53;;;;;;;33.30;17.35;;;;;;;15.91;94.76;99212.19;5117896;28;20043;-94
2022/10/08 07:31:22;;;;;;;32.50;17.10;;;;;;;15.87;93.80;99195.34;5118429;28;20051;-94
2022/10/08 07:33:48;;;;;;;29.27;16.43;;;;;;;16.03;92.23;99192.91;5117916;28;20097;-95
2022/10/08 07:36:15;;;;;;;28.02;15.73;;;;;;;16.20;93.25;99176.94;5119304;28;20051;-94
2022/10/08 07:38:43;;;;;;;31.10;16.95;;;;;;;16.52;91.40;99187.19;5119802;27;20051;-94
2022/10/08 07:41:11;;;;;;;29.52;16.65;;;;;;;16.83;89.94;99209.06;5117752;28;20048;-94
2022/10/08 07:43:41;;;;;;;29.83;16.63;;;;;;;17.06;86.94;99195.50;5118079;28;20039;-94
2022/10/08 07:46:08;;;;;;;28.17;16.23;;;;;;;17.28;85.63;99177.41;5117521;27;20421;-93
2022/10/08 07:48:35;;;;;;;25.77;14.85;;;;;;;17.54;84.25;99208.41;5117141;28;20050;-95
2022/10/08 07:51:08;;;;;;;26.45;14.98;;;;;;;17.57;81.03;99194.84;5116654;28;20036;-94
2022/10/08 07:53:35;;;;;;;25.85;13.38;;;;;;;17.70;81.98;99219.31;5117021;28;20052;-95
2022/10/08 07:56:02;;;;;;;24.40;13.90;;;;;;;17.83;82.14;99217.81;5118195;27;20044;-94
2022/10/08 07:58:28;;;;;;;25.55;14.32;;;;;;;17.66;80.14;99205.16;5108414;28;20036;-94
2022/10/08 08:00:55;;;;;;;23.77;13.35;;;;;;;17.53;81.37;99201.31;5116480;28;20480;-94
2022/10/08 08:03:21;;;;;;;24.02;13.35;;;;;;;17.43;81.06;99208.06;5116009;28;20063;-93
2022/10/08 08:05:47;;;;;;;22.90;13.77;;;;;;;17.13;82.99;99196.97;5113709;28;20050;-94
2022/10/08 08:08:13;;;;;;;22.38;12.98;;;;;;;17.00;84.83;99213.69;5117753;28;20043;-94
2022/10/08 08:10:39;;;;;;;23.00;13.80;;;;;;;17.26;83.70;99208.88;5117092;28;20035;-93
2022/10/08 08:13:07;;;;;;;25.58;14.07;;;;;;;17.43;81.84;99214.31;5117250;28;20565;-95
2022/10/08 08:15:35;;;;;;;23.42;13.23;;;;;;;17.44;82.20;99212.53;5116513;28;20059;-94
2022/10/08 08:18:01;;;;;;;19.67;12.85;;;;;;;17.43;81.74;99211.63;5116210;28;20047;-95
2022/10/08 08:20:27;;;;;;;23.58;12.38;;;;;;;17.33;81.21;99193.34;5116748;28;20039;-94
2022/10/08 08:22:53;;;;;;;23.48;13.30;;;;;;;17.62;83.09;99217.00;5116604;28;20043;-94
2022/10/08 08:25:18;;;;;;;24.33;13.57;;;;;;;17.72;80.46;99193.22;5117356;28;20058;-93
2022/10/08 08:27:44;;;;;;;24.83;13.20;;;;;;;17.88;77.23;99197.88;5116323;28;20058;-95
2022/10/08 08:30:12;;;;;;;24.33;13.60;;;;;;;17.92;76.92;99210.22;5117043;28;20028;-94
2022/10/08 08:32:38;;;;;;;22.17;13.18;;;;;;;17.85;79.28;99210.53;5114637;28;20490;-94
2022/10/08 08:35:04;;;;;;;24.58;12.45;;;;;;;17.99;79.11;99204.44;5115479;28;20130;-92
2022/10/08 08:37:30;;;;;;;21.77;12.75;;;;;;;18.26;76.34;99204.88;5115516;28;20443;-94
2022/10/08 08:39:56;;;;;;;19.45;11.40;;;;;;;18.57;75.31;99211.34;5115700;28;20036;-93
2022/10/08 08:42:38;;;;;;;21.02;12.90;;;;;;;18.51;73.88;99208.97;5116771;28;20035;-95
2022/10/08 08:45:18;;;;;;;21.08;12.73;;;;;;;18.41;73.94;99207.69;5106146;28;20400;-94
2022/10/08 08:47:53;;;;;;;23.10;12.05;;;;;;;18.33;73.71;99200.03;5114989;28;20063;-95
2022/10/08 08:50:24;;;;;;;21.25;12.27;;;;;;;18.30;73.76;99207.38;5104730;28;20138;-96
2022/10/08 08:52:54;;;;;;;21.80;11.40;;;;;;;18.41;74.19;99213.97;5115180;28;20123;-94
2022/10/08 08:55:32;;;;;;;18.88;10.57;;;;;;;18.62;72.26;99201.19;5114810;28;20584;-95
2022/10/08 08:58:04;;;;;;;17.40;10.40;;;;;;;18.89;70.77;99206.09;5117799;28;20036;-95
2022/10/08 09:00:35;;;;;;;18.55;10.52;;;;;;;19.16;69.60;99205.53;5116926;28;20046;-95
2022/10/08 09:03:05;;;;;;;21.38;11.25;;;;;;;19.24;68.62;99181.72;5116094;28;20051;-96
2022/10/08 09:05:38;;;;;;;16.70;10.23;;;;;;;19.39;69.17;99188.06;5116776;28;20493;-95
2022/10/08 09:08:11;;;;;;;23.33;10.82;;;;;;;19.36;69.57;99189.09;5119999;28;20134;-96
2022/10/08 09:10:44;;;;;;;20.73;11.60;;;;;;;19.53;67.59;99206.16;5118757;28;20044;-95
2022/10/08 09:13:14;;;;;;;20.38;11.98;;;;;;;19.48;67.94;99203.72;5119662;28;20573;-95
2022/10/08 09:15:43;;;;;;;17.33;11.05;;;;;;;19.14;69.10;99183.16;5118701;28;20043;-95
2022/10/08 09:18:10;;;;;;;;;;;;;;;19.46;69.19;99211.03;5118598;28;20090;-95
2022/10/08 09:20:38;;;;;;;17.95;10.80;;;;;;;19.57;68.69;99189.72;5120756;28;20390;-95
2022/10/08 09:23:12;;;;;;;17.08;10.98;;;;;;;19.45;66.51;99177.81;5120573;28;20039;-94
2022/10/08 09:25:41;;;;;;;21.90;11.43;;;;;;;19.14;68.50;99181.34;5117742;28;20093;-96
2022/10/08 09:28:07;;;;;;;18.10;10.60;;;;;;;19.22;68.04;99187.19;5117734;28;20036;-95
2022/10/08 09:30:36;;;;;;;20.38;11.18;;;;;;;19.55;69.08;99204.25;5123882;28;20384;-94
2022/10/08 09:33:15;;;;;;;17.58;11.05;;;;;;;19.66;68.37;99180.22;5119526;28;20093;-95
2022/10/08 09:35:43;;;;;;;23.13;12.13;;;;;;;19.76;67.80;99191.41;5123968;28;20043;-96
2022/10/08 09:38:20;;;;;;;21.13;12.25;;;;;;;19.87;68.86;99197.88;5121818;28;20039;-95
2022/10/08 09:40:59;;;;;;;20.10;12.07;;;;;;;19.70;67.90;99198.00;5117794;28;20082;-95
2022/10/08 09:43:25;;;;;;;21.90;12.30;;;;;;;19.53;67.99;99196.22;5101618;28;20077;-94
2022/10/08 09:45:53;;;;;;;17.23;11.60;;;;;;;19.60;69.13;99191.34;5119939;28;20044;-95
2022/10/08 09:48:23;;;;;;;22.30;11.80;;;;;;;20.07;67.78;99201.25;5119042;28;20065;-94
2022/10/08 09:50:56;;;;;;;21.00;11.50;;;;;;;20.33;66.65;99179.91;5123483;28;20035;-95
2022/10/08 09:53:25;;;;;;;20.05;12.70;;;;;;;20.51;66.79;99178.78;5121657;28;20099;-96
2022/10/08 09:55:55;;;;;;;;;;;;;;;20.65;66.40;99203.16;5116961;28;20040;-94
2022/10/08 09:58:21;;;;;;;21.80;12.70;;;;;;;20.56;67.65;99171.28;5114512;28;19972;-95
2022/10/08 10:00:57;;;;;;;22.45;13.75;;;;;;;20.75;65.70;99186.38;5120065;28;20032;-93
2022/10/08 10:03:26;;;;;;;22.67;13.15;;;;;;;20.91;66.47;99165.53;5118751;28;20043;-95
2022/10/08 10:05:52;;;;;;;;;;;;;;;20.57;65.91;99194.66;5119162;28;20104;-92
2022/10/08 10:08:42;;;;;;;19.83;13.23;;;;;;;20.53;66.43;99187.66;5117913;28;20292;-95
2022/10/08 10:11:12;;;;;;;22.30;13.15;;;;;;;20.61;66.82;99160.22;5121257;28;20040;-92
2022/10/08 10:13:39;;;;;;;17.95;11.80;;;;;;;20.71;65.14;99167.66;5120823;28;20051;-95
2022/10/08 10:16:10;;;;;;;22.30;12.50;;;;;;;20.79;65.08;99161.75;5121315;28;20063;-96
2022/10/08 10:18:46;;;;;;;17.45;10.93;;;;;;;20.82;64.49;99144.47;5115411;28;20412;-93
2022/10/08 10:21:17;;;;;;;18.55;11.20;;;;;;;20.91;63.46;99147.47;5102107;28;20245;-95
2022/10/08 10:23:49;;;;;;;18.77;11.57;;;;;;;21.20;64.28;99165.50;5119216;28;20062;-95
2022/10/08 10:26:21;;;;;;;20.63;12.55;;;;;;;20.92;64.18;99145.63;5121154;28;20043;-95
2022/10/08 10:28:51;;;;;;;17.80;11.00;;;;;;;20.80;64.44;99130.22;5120963;28;20055;-94
2022/10/08 10:31:23;;;;;;;19.85;11.50;;;;;;;20.71;65.33;99127.13;5121289;27;20047;-95
2022/10/08 10:33:55;;;;;;;17.70;11.65;;;;;;;20.94;64.81;99122.06;5123051;28;20043;-95
2022/10/08 10:36:26;;;;;;;22.00;13.07;;;;;;;20.97;64.89;99138.13;5119617;28;20074;-96
2022/10/08 10:39:03;;;;;;;19.92;12.10;;;;;;;20.98;64.98;99134.44;5121417;28;20063;-93
2022/10/08 10:41:36;;;;;;;25.52;13.05;;;;;;;20.83;65.73;99130.00;5118259;28;20393;-95
2022/10/08 10:44:05;;;;;;;21.83;13.60;;;;;;;20.79;65.98;99147.38;5117889;28;20039;-95
2022/10/08 10:46:37;;;;;;;20.42;12.93;;;;;;;20.68;67.10;99132.69;5122399;28;20043;-95
2022/10/08 10:49:12;;;;;;;18.58;12.23;;;;;;;20.44;65.50;99123.41;5119501;28;20500;-96
2022/10/08 10:51:53;;;;;;;20.88;12.57;;;;;;;20.54;66.48;99143.50;5119118;28;20040;-96
2022/10/08 10:54:36;;;;;;;20.50;12.40;;;;;;;20.61;65.36;99135.91;5118443;27;20060;-95
2022/10/08 10:57:07;;;;;;;21.75;12.77;;;;;;;20.77;66.46;99135.78;5118527;28;20036;-94
2022/10/08 10:59:44;;;;;;;20.70;12.48;;;;;;;21.05;64.00;99105.16;5117804;28;20052;-94
2022/10/08 11:02:19;;;;;;;17.27;11.50;;;;;;;21.19;64.30;99104.25;5121418;28;20082;-96
2022/10/08 11:04:58;;;;;;;21.13;12.25;;;;;;;21.18;62.49;99100.69;5123113;28;20035;-96
2022/10/08 11:07:45;;;;;;;19.35;12.07;;;;;;;21.46;63.29;99117.84;5120879;28;20052;-96
2022/10/08 11:10:27;;;;;;;26.52;12.93;;;;;;;21.17;63.05;99095.41;5121526;28;20040;-96
2022/10/08 11:13:01;;;;;;;21.85;12.77;;;;;;;21.23;64.14;99093.16;5123719;28;20404;-96
2022/10/08 11:15:35;;;;;;;20.80;12.70;;;;;;;21.32;64.09;99106.06;5124178;28;20054;-96
2022/10/08 11:18:18;;;;;;;21.92;12.00;;;;;;;21.15;64.72;99090.09;5129012;28;20040;-95
2022/10/08 11:21:02;;;;;;;22.17;11.90;;;;;;;21.18;64.45;99081.75;5126791;28;20070;-96
2022/10/08 11:23:45;;;;;;;19.98;11.60;;;;;;;21.28;64.08;99069.38;5125020;28;20039;-95